Time;durP1;ratioP1;P1;durP2;ratioP2;P2;SDS_P1;SDS_P2;PMS_P1;PMS_P2;Temp;Humidity;BMP_temperature;BMP_pressure;BME280_temperature;BME280_humidity;BME280_pressure;Samples;Min_cycle;Max_cycle;Signal;HPM_P1;HPM_P2
2024/03/30 00:01:53;;;;;;;65.63;14.70;;;;;;;;;;5014957;28;20049;-52
2024/03/30 00:04:19;;;;;;;83.15;14.10;;;;;;;;;;5014995;28;20544;-55
2024/03/30 00:06:46;;;;;;;62.80;12.10;;;;;;;;;;5014906;28;20049;-50
2024/03/30 00:09:12;;;;;;;65.40;14.57;;;;;;;;;;5014695;28;20100;-54
2024/03/30 00:11:39;;;;;;;68.53;12.82;;;;;;;;;;5014450;28;20050;-52
2024/03/30 00:14:06;;;;;;;64.47;12.90;;;;;;;;;;5014520;28;20524;-52
2024/03/30 00:16:33;;;;;;;71.00;14.65;;;;;;;;;;5014558;28;20143;-52
2024/03/30 00:19:01;;;;;;;69.63;12.63;;;;;;;;;;5014638;28;20056;-54
2024/03/30 00:21:28;;;;;;;78.75;14.23;;;;;;;;;;5014537;28;20049;-55
2024/03/30 00:23:54;;;;;;;73.38;12.48;;;;;;;;;;5014157;28;20077;-52
2024/03/30 00:26:21;;;;;;;74.38;13.52;;;;;;;;;;5014324;28;20501;-54
2024/03/30 00:28:47;;;;;;;66.88;14.40;;;;;;;;;;5014445;28;20077;-53
2024/03/30 00:31:15;;;;;;;64.80;13.38;;;;;;;;;;5014497;28;20056;-49
2024/03/30 00:33:41;;;;;;;67.68;12.75;;;;;;;;;;5014030;28;20045;-53
2024/03/30 00:36:08;;;;;;;64.70;12.23;;;;;;;;;;5014235;28;20460;-53
2024/03/30 00:38:35;;;;;;;67.57;12.80;;;;;;;;;;5014147;28;20058;-54
2024/03/30 00:41:02;;;;;;;66.72;12.38;;;;;;;;;;5013918;28;20458;-49
2024/03/30 00:43:28;;;;;;;64.30;12.63;;;;;;;;;;5013551;28;20073;-53
2024/03/30 00:45:55;;;;;;;56.53;11.55;;;;;;;;;;5014069;28;21311;-54
2024/03/30 00:48:22;;;;;;;53.00;10.98;;;;;;;;;;5013894;28;20382;-50
2024/03/30 00:50:52;;;;;;;55.65;11.23;;;;;;;;;;5014018;28;20064;-50
2024/03/30 00:53:18;;;;;;;57.35;11.48;;;;;;;;;;5013416;28;20045;-51
2024/03/30 00:55:45;;;;;;;70.88;13.18;;;;;;;;;;5013849;28;20054;-50
2024/03/30 00:58:11;;;;;;;64.97;13.50;;;;;;;;;;5013710;28;20111;-53
2024/03/30 01:00:38;;;;;;;67.75;14.77;;;;;;;;;;5013744;28;20456;-54
2024/03/30 01:03:04;;;;;;;56.38;11.57;;;;;;;;;;5013659;28;20125;-51
2024/03/30 01:05:32;;;;;;;53.65;10.93;;;;;;;;;;5013699;28;20041;-52
2024/03/30 01:07:58;;;;;;;55.53;10.18;;;;;;;;;;5013522;28;20052;-53
2024/03/30 01:10:25;;;;;;;62.30;13.00;;;;;;;;;;5013582;28;20058;-53
2024/03/30 01:12:51;;;;;;;62.55;12.65;;;;;;;;;;5013365;28;20160;-49
2024/03/30 01:15:19;;;;;;;62.80;10.63;;;;;;;;;;5013346;28;20104;-52
2024/03/30 01:17:46;;;;;;;59.03;11.13;;;;;;;;;;5013761;28;20065;-51
2024/03/30 01:20:14;;;;;;;60.72;11.18;;;;;;;;;;5013323;28;20452;-56
2024/03/30 01:22:42;;;;;;;56.08;9.88;;;;;;;;;;5013256;28;20049;-52
2024/03/30 01:25:09;;;;;;;52.38;10.82;;;;;;;;;;5013219;28;20133;-51
2024/03/30 01:27:36;;;;;;;61.92;9.63;;;;;;;;;;5005632;28;20493;-51
2024/03/30 01:30:05;;;;;;;50.92;9.27;;;;;;;;;;5013158;28;20067;-50
2024/03/30 01:32:32;;;;;;;61.22;11.82;;;;;;;;;;5013106;28;20046;-51
2024/03/30 01:34:59;;;;;;;55.97;10.75;;;;;;;;;;5013076;28;20420;-53
2024/03/30 01:37:25;;;;;;;56.92;10.23;;;;;;;;;;5012989;28;20054;-51
2024/03/30 01:39:53;;;;;;;49.65;9.60;;;;;;;;;;5012740;28;20050;-52
2024/03/30 01:42:26;;;;;;;57.28;9.73;;;;;;;;;;5012756;28;20058;-51
2024/03/30 01:44:53;;;;;;;59.45;10.82;;;;;;;;;;5012768;28;20064;-51
2024/03/30 01:47:20;;;;;;;55.80;10.98;;;;;;;;;;5012999;28;20402;-50
2024/03/30 01:49:47;;;;;;;52.45;9.75;;;;;;;;;;5012795;28;20165;-51
2024/03/30 01:52:13;;;;;;;53.60;10.15;;;;;;;;;;5012576;28;20053;-51
2024/03/30 01:54:41;;;;;;;53.08;10.05;;;;;;;;;;5012476;28;20049;-52
2024/03/30 01:57:08;;;;;;;51.08;10.93;;;;;;;;;;5012974;28;20413;-51
2024/03/30 01:59:35;;;;;;;61.08;10.82;;;;;;;;;;5012746;28;20049;-50
2024/03/30 02:02:01;;;;;;;57.20;10.85;;;;;;;;;;5012567;28;20054;-52
2024/03/30 02:04:28;;;;;;;49.53;10.02;;;;;;;;;;5012111;28;20061;-56
2024/03/30 02:06:55;;;;;;;55.42;10.50;;;;;;;;;;5012894;28;20053;-54
2024/03/30 02:09:22;;;;;;;57.72;9.30;;;;;;;;;;5012335;28;20046;-54
2024/03/30 02:11:48;;;;;;;47.35;9.00;;;;;;;;;;5012389;28;20054;-54
2024/03/30 02:14:17;;;;;;;45.65;9.38;;;;;;;;;;5012132;28;20067;-49
2024/03/30 02:16:42;;;;;;;48.10;10.00;;;;;;;;;;5012498;28;20054;-53
2024/03/30 02:19:10;;;;;;;44.90;8.63;;;;;;;;;;5012116;28;20571;-50
2024/03/30 02:21:36;;;;;;;46.15;8.85;;;;;;;;;;5011861;28;20046;-49
2024/03/30 02:24:05;;;;;;;46.53;8.10;;;;;;;;;;5012007;28;20050;-52
2024/03/30 02:26:31;;;;;;;52.53;9.75;;;;;;;;;;5012080;28;20057;-51
2024/03/30 02:28:58;;;;;;;47.22;8.13;;;;;;;;;;5012050;28;20046;-52
2024/03/30 02:31:24;;;;;;;55.45;9.52;;;;;;;;;;5012087;28;20056;-50
2024/03/30 02:33:51;;;;;;;45.80;8.10;;;;;;;;;;5011493;28;20397;-48
2024/03/30 02:36:20;;;;;;;44.45;10.65;;;;;;;;;;5012145;28;20146;-49
2024/03/30 02:38:47;;;;;;;47.92;8.35;;;;;;;;;;5011939;28;20057;-54
2024/03/30 02:41:14;;;;;;;43.65;7.95;;;;;;;;;;5011820;28;20058;-52
2024/03/30 02:43:41;;;;;;;52.47;8.65;;;;;;;;;;5011409;28;20050;-57
2024/03/30 02:46:07;;;;;;;53.85;8.05;;;;;;;;;;5011902;28;20057;-52
2024/03/30 02:48:34;;;;;;;47.47;7.95;;;;;;;;;;5012316;28;20058;-55
2024/03/30 02:51:00;;;;;;;47.67;9.45;;;;;;;;;;5011915;28;20050;-49
2024/03/30 02:53:27;;;;;;;39.15;8.02;;;;;;;;;;5011544;28;20540;-51
2024/03/30 02:55:52;;;;;;;41.15;7.95;;;;;;;;;;5011859;28;20061;-58
2024/03/30 02:58:21;;;;;;;47.30;8.15;;;;;;;;;;5011789;28;20456;-51
2024/03/30 03:00:47;;;;;;;42.38;8.00;;;;;;;;;;5011726;28;20417;-49
2024/03/30 03:03:14;;;;;;;40.60;8.85;;;;;;;;;;5012403;28;20046;-51
2024/03/30 03:05:40;;;;;;;42.88;7.60;;;;;;;;;;5031288;28;20085;-50
2024/03/30 03:08:07;;;;;;;46.78;6.97;;;;;;;;;;5031314;28;20077;-51
2024/03/30 03:10:33;;;;;;;44.97;7.63;;;;;;;;;;5031402;28;20057;-50
2024/03/30 03:13:00;;;;;;;39.38;7.53;;;;;;;;;;5030862;28;20045;-51
2024/03/30 03:15:27;;;;;;;38.28;5.97;;;;;;;;;;5031007;28;20056;-56
2024/03/30 03:17:54;;;;;;;42.10;6.57;;;;;;;;;;5031526;28;20487;-56
2024/03/30 03:20:20;;;;;;;32.47;7.55;;;;;;;;;;5031302;28;20071;-53
2024/03/30 03:22:46;;;;;;;35.83;7.22;;;;;;;;;;5031070;28;20497;-53
2024/03/30 03:25:12;;;;;;;34.30;5.97;;;;;;;;;;5031040;28;20056;-54
2024/03/30 03:27:39;;;;;;;35.25;8.70;;;;;;;;;;5031176;28;20057;-55
2024/03/30 03:30:06;;;;;;;39.03;9.95;;;;;;;;;;5031204;28;20057;-52
2024/03/30 03:32:35;;;;;;;43.83;10.07;;;;;;;;;;5032684;28;20056;-56
2024/03/30 03:35:00;;;;;;;37.17;7.57;;;;;;;;;;5035112;28;20054;-58
2024/03/30 03:37:27;;;;;;;46.10;8.00;;;;;;;;;;5035170;28;20420;-52
2024/03/30 03:39:53;;;;;;;40.88;7.28;;;;;;;;;;5034797;28;20433;-50
2024/03/30 03:42:20;;;;;;;34.20;6.88;;;;;;;;;;5035066;28;20049;-51
2024/03/30 03:44:46;;;;;;;41.08;7.55;;;;;;;;;;5034721;28;20346;-51
2024/03/30 03:47:13;;;;;;;35.58;6.90;;;;;;;;;;5035019;28;20045;-50
2024/03/30 03:49:40;;;;;;;42.08;6.78;;;;;;;;;;5034930;28;20056;-52
2024/03/30 03:52:07;;;;;;;34.55;5.70;;;;;;;;;;5034734;28;20069;-55
2024/03/30 03:54:33;;;;;;;40.45;8.75;;;;;;;;;;5026258;28;20052;-54
2024/03/30 03:57:00;;;;;;;37.83;6.60;;;;;;;;;;5035191;28;20049;-54
2024/03/30 03:59:26;;;;;;;30.73;6.25;;;;;;;;;;5034806;28;20428;-53
2024/03/30 04:01:53;;;;;;;40.30;7.85;;;;;;;;;;5034558;28;20050;-50
2024/03/30 04:04:19;;;;;;;41.78;7.53;;;;;;;;;;5034162;28;20045;-52
2024/03/30 04:06:47;;;;;;;41.03;7.95;;;;;;;;;;5034550;28;20057;-53
2024/03/30 04:09:15;;;;;;;31.60;6.55;;;;;;;;;;5034816;28;20512;-49
2024/03/30 04:11:42;;;;;;;34.00;5.88;;;;;;;;;;5034480;28;20049;-53
2024/03/30 04:14:08;;;;;;;40.05;5.20;;;;;;;;;;5034183;28;20049;-51
2024/03/30 04:16:35;;;;;;;31.25;6.43;;;;;;;;;;5006521;28;20057;-51
2024/03/30 04:19:00;;;;;;;36.53;8.25;;;;;;;;;;5014656;28;20057;-56
2024/03/30 04:21:28;;;;;;;22.70;4.43;;;;;;;;;;5014296;28;20497;-56
2024/03/30 04:23:56;;;;;;;37.25;8.25;;;;;;;;;;5014318;28;20046;-51
2024/03/30 04:26:26;;;;;;;27.85;5.80;;;;;;;;;;5014467;28;20162;-50
2024/03/30 04:28:52;;;;;;;27.00;5.20;;;;;;;;;;5014495;28;20545;-51
2024/03/30 04:31:19;;;;;;;35.00;7.65;;;;;;;;;;5014267;28;20125;-50
2024/03/30 04:33:44;;;;;;;39.65;8.32;;;;;;;;;;5013739;28;20053;-49
2024/03/30 04:36:11;;;;;;;31.75;7.47;;;;;;;;;;5014133;28;20046;-51
2024/03/30 04:38:38;;;;;;;31.67;7.32;;;;;;;;;;5014333;28;20046;-56
2024/03/30 04:41:08;;;;;;;33.15;6.65;;;;;;;;;;5014043;28;20525;-49
2024/03/30 04:43:36;;;;;;;34.53;7.82;;;;;;;;;;5013226;28;20490;-57
2024/03/30 04:46:04;;;;;;;32.78;6.30;;;;;;;;;;5014277;28;20386;-55
2024/03/30 04:48:31;;;;;;;31.40;7.53;;;;;;;;;;5013947;28;20050;-51
2024/03/30 04:50:59;;;;;;;36.00;6.57;;;;;;;;;;5014137;28;20045;-49
2024/03/30 04:53:30;;;;;;;36.25;6.80;;;;;;;;;;5013560;28;20054;-51
2024/03/30 04:55:57;;;;;;;43.88;7.38;;;;;;;;;;5013976;28;20501;-48
2024/03/30 04:58:27;;;;;;;33.67;5.85;;;;;;;;;;5013741;28;20129;-52
2024/03/30 05:00:54;;;;;;;34.25;8.90;;;;;;;;;;5014110;28;20042;-51
2024/03/30 05:03:21;;;;;;;33.03;6.05;;;;;;;;;;5013412;28;20108;-53
2024/03/30 05:05:47;;;;;;;34.90;7.03;;;;;;;;;;5013848;28;20436;-51
2024/03/30 05:08:15;;;;;;;40.65;8.40;;;;;;;;;;5013609;28;20428;-49
2024/03/30 05:10:43;;;;;;;43.20;6.28;;;;;;;;;;5013720;28;20524;-55
2024/03/30 05:13:10;;;;;;;30.65;5.90;;;;;;;;;;5013515;28;20469;-50
2024/03/30 05:15:39;;;;;;;38.83;7.45;;;;;;;;;;5013437;28;20054;-53
2024/03/30 05:18:06;;;;;;;44.92;7.50;;;;;;;;;;5013753;28;20053;-49
2024/03/30 05:20:50;;;;;;;39.88;5.90;;;;;;;;;;5013453;28;20145;-52
2024/03/30 05:23:18;;;;;;;34.88;5.88;;;;;;;;;;5013041;28;20054;-49
2024/03/30 05:25:44;;;;;;;38.97;6.57;;;;;;;;;;5013249;28;20049;-52
2024/03/30 05:28:11;;;;;;;36.75;8.07;;;;;;;;;;5013578;28;20565;-50
2024/03/30 05:30:40;;;;;;;32.30;5.93;;;;;;;;;;5013247;28;20064;-51
2024/03/30 05:33:06;;;;;;;42.83;8.23;;;;;;;;;;5012915;28;20050;-51
2024/03/30 05:35:33;;;;;;;42.33;7.22;;;;;;;;;;5012978;28;20559;-54
2024/03/30 05:37:59;;;;;;;34.20;6.30;;;;;;;;;;5013042;28;20054;-53
2024/03/30 05:40:26;;;;;;;45.17;9.70;;;;;;;;;;5012946;28;20057;-52
2024/03/30 05:42:52;;;;;;;38.60;5.72;;;;;;;;;;5012725;28;20056;-53
2024/03/30 05:45:19;;;;;;;42.05;7.95;;;;;;;;;;5012690;28;20050;-49
2024/03/30 05:47:46;;;;;;;34.17;6.70;;;;;;;;;;5012841;28;20517;-51
2024/03/30 05:50:15;;;;;;;37.05;7.35;;;;;;;;;;5012672;28;20050;-50
2024/03/30 05:52:41;;;;;;;50.33;9.55;;;;;;;;;;5012827;28;20064;-49
2024/03/30 05:55:08;;;;;;;36.55;7.45;;;;;;;;;;5011697;28;20487;-49
2024/03/30 05:57:33;;;;;;;37.05;6.55;;;;;;;;;;5012740;28;20052;-51
2024/03/30 06:00:00;;;;;;;38.15;7.32;;;;;;;;;;5012691;28;20045;-55
2024/03/30 06:02:26;;;;;;;37.33;6.85;;;;;;;;;;5012500;28;20046;-52
2024/03/30 06:04:55;;;;;;;39.25;6.97;;;;;;;;;;5012700;28;20069;-54
2024/03/30 06:07:21;;;;;;;29.88;6.88;;;;;;;;;;5012708;28;20064;-50
2024/03/30 06:09:48;;;;;;;36.40;8.10;;;;;;;;;;5013028;28;20054;-50
2024/03/30 06:12:14;;;;;;;34.60;7.50;;;;;;;;;;5012342;28;20046;-52
2024/03/30 06:14:41;;;;;;;40.88;8.27;;;;;;;;;;5012356;28;20052;-49
2024/03/30 06:17:06;;;;;;;46.33;8.10;;;;;;;;;;5012509;28;20058;-53
2024/03/30 06:19:33;;;;;;;34.25;6.65;;;;;;;;;;5012335;28;20053;-53
2024/03/30 06:22:01;;;;;;;35.58;6.93;;;;;;;;;;5012576;28;20054;-53
2024/03/30 06:24:27;;;;;;;35.08;6.47;;;;;;;;;;5012336;28;20046;-54
2024/03/30 06:26:53;;;;;;;40.47;9.40;;;;;;;;;;5012750;28;20054;-56
2024/03/30 06:29:20;;;;;;;35.63;6.25;;;;;;;;;;5012385;28;20417;-50
2024/03/30 06:31:46;;;;;;;39.83;6.80;;;;;;;;;;5012264;28;20049;-53
2024/03/30 06:34:13;;;;;;;40.92;7.38;;;;;;;;;;5012376;28;20116;-50
2024/03/30 06:36:39;;;;;;;30.80;6.45;;;;;;;;;;5012294;28;20046;-53
2024/03/30 06:39:08;;;;;;;43.83;7.28;;;;;;;;;;5012398;28;20445;-51
2024/03/30 06:44:19;;;;;;;41.63;7.80;;;;;;;;;;5011807;28;20061;-56
2024/03/30 06:46:46;;;;;;;30.30;6.53;;;;;;;;;;5012193;28;20049;-55
2024/03/30 06:49:13;;;;;;;36.95;6.07;;;;;;;;;;5011956;28;20061;-54
2024/03/30 06:51:39;;;;;;;36.50;7.70;;;;;;;;;;5012071;28;20516;-50
2024/03/30 06:54:08;;;;;;;38.30;6.28;;;;;;;;;;5011523;28;20046;-50
2024/03/30 06:56:34;;;;;;;35.42;7.03;;;;;;;;;;5011968;28;20069;-51
2024/03/30 06:59:00;;;;;;;37.10;7.05;;;;;;;;;;5011958;28;20050;-52
2024/03/30 07:01:27;;;;;;;37.63;6.43;;;;;;;;;;5011778;28;20046;-55
2024/03/30 07:03:54;;;;;;;28.60;5.30;;;;;;;;;;5011531;28;20052;-53
2024/03/30 07:06:20;;;;;;;34.10;7.95;;;;;;;;;;5011687;28;20049;-55
2024/03/30 07:08:47;;;;;;;35.85;7.97;;;;;;;;;;5011744;28;20119;-50
2024/03/30 07:11:14;;;;;;;36.28;5.50;;;;;;;;;;5011962;28;20125;-54
2024/03/30 07:13:42;;;;;;;41.50;8.35;;;;;;;;;;5011278;28;20129;-52
2024/03/30 07:16:07;;;;;;;44.92;6.82;;;;;;;;;;5011945;28;20058;-50
2024/03/30 07:18:34;;;;;;;32.55;7.22;;;;;;;;;;5011717;28;20049;-55
2024/03/30 07:21:00;;;;;;;32.97;5.20;;;;;;;;;;5011747;28;20425;-52
2024/03/30 07:23:27;;;;;;;29.83;4.97;;;;;;;;;;5011139;28;20053;-50
2024/03/30 07:25:53;;;;;;;31.52;5.10;;;;;;;;;;5011671;28;20052;-50
2024/03/30 07:28:21;;;;;;;20.45;4.78;;;;;;;;;;5011612;28;20128;-52
2024/03/30 07:30:53;;;;;;;37.67;6.13;;;;;;;;;;5011610;28;20236;-54
2024/03/30 07:33:19;;;;;;;26.98;5.28;;;;;;;;;;5011404;28;20341;-53
2024/03/30 07:35:54;;;;;;;30.42;4.88;;;;;;;;;;5011557;28;20049;-49
2024/03/30 07:38:23;;;;;;;31.02;5.00;;;;;;;;;;5011475;28;20124;-55
2024/03/30 07:40:50;;;;;;;25.80;6.05;;;;;;;;;;5011274;28;20497;-50
2024/03/30 07:43:16;;;;;;;24.10;4.22;;;;;;;;;;5010969;28;20157;-52
2024/03/30 07:45:44;;;;;;;31.30;6.47;;;;;;;;;;5011416;28;20046;-50
2024/03/30 07:48:11;;;;;;;29.65;4.65;;;;;;;;;;5011577;28;20481;-52
2024/03/30 07:50:38;;;;;;;33.97;5.20;;;;;;;;;;5011593;28;20041;-54
2024/03/30 07:53:04;;;;;;;35.60;5.13;;;;;;;;;;5011236;28;20057;-54
2024/03/30 07:55:31;;;;;;;22.17;4.07;;;;;;;;;;5011203;28;20409;-50
2024/03/30 07:57:57;;;;;;;32.78;5.60;;;;;;;;;;5011381;28;20046;-53
2024/03/30 08:00:24;;;;;;;32.80;4.72;;;;;;;;;;5011381;28;20072;-53
2024/03/30 08:02:59;;;;;;;29.27;5.28;;;;;;;;;;5005345;28;20046;-52
2024/03/30 08:05:25;;;;;;;31.48;4.65;;;;;;;;;;5009874;28;20050;-51
2024/03/30 08:07:51;;;;;;;25.27;5.20;;;;;;;;;;5011313;28;20049;-54
2024/03/30 08:10:19;;;;;;;30.20;7.20;;;;;;;;;;5011195;28;20053;-50
2024/03/30 08:12:45;;;;;;;32.72;4.80;;;;;;;;;;5010909;28;20512;-54
2024/03/30 08:15:12;;;;;;;27.55;4.78;;;;;;;;;;5011218;28;20046;-55
2024/03/30 08:17:38;;;;;;;31.88;6.45;;;;;;;;;;5011423;28;20710;-55
2024/03/30 08:20:08;;;;;;;23.40;5.45;;;;;;;;;;5015150;28;20058;-53
2024/03/30 08:22:34;;;;;;;29.23;6.28;;;;;;;;;;5014827;28;20575;-50
2024/03/30 08:25:01;;;;;;;25.73;4.85;;;;;;;;;;5014702;28;20046;-56
2024/03/30 08:27:27;;;;;;;26.80;4.43;;;;;;;;;;5014620;28;20116;-51
2024/03/30 08:29:54;;;;;;;25.40;4.70;;;;;;;;;;5014923;28;20452;-50
2024/03/30 08:32:19;;;;;;;25.95;4.07;;;;;;;;;;5014474;28;20521;-56
2024/03/30 08:34:46;;;;;;;27.77;6.38;;;;;;;;;;5014477;28;20046;-53
2024/03/30 08:37:13;;;;;;;29.52;5.47;;;;;;;;;;5014486;28;20050;-51
2024/03/30 08:39:40;;;;;;;25.60;4.90;;;;;;;;;;5014049;28;20687;-51
2024/03/30 08:42:06;;;;;;;31.05;5.47;;;;;;;;;;5014550;28;20050;-50
2024/03/30 08:44:33;;;;;;;40.38;6.43;;;;;;;;;;5013995;28;20530;-54
2024/03/30 08:46:59;;;;;;;25.75;6.28;;;;;;;;;;5014251;28;20057;-53
2024/03/30 08:49:26;;;;;;;27.50;4.55;;;;;;;;;;5014166;28;20054;-51
2024/03/30 08:51:52;;;;;;;26.40;4.88;;;;;;;;;;5013990;28;20046;-51
2024/03/30 08:54:20;;;;;;;32.17;5.07;;;;;;;;;;5013673;28;20057;-53
2024/03/30 08:56:46;;;;;;;33.60;5.10;;;;;;;;;;5014255;28;20544;-53
2024/03/30 08:59:13;;;;;;;31.42;5.07;;;;;;;;;;5014063;28;20045;-53
2024/03/30 09:01:39;;;;;;;28.95;5.13;;;;;;;;;;5013921;28;20461;-50
2024/03/30 09:04:06;;;;;;;27.92;5.20;;;;;;;;;;5013852;28;20042;-54
2024/03/30 09:06:32;;;;;;;32.35;4.95;;;;;;;;;;5013727;28;20057;-56
2024/03/30 09:08:58;;;;;;;35.72;7.38;;;;;;;;;;5014066;28;20528;-50
2024/03/30 09:11:27;;;;;;;34.85;6.20;;;;;;;;;;5013924;28;20429;-56
2024/03/30 09:13:53;;;;;;;38.33;7.18;;;;;;;;;;5013545;28;20421;-57
2024/03/30 09:16:19;;;;;;;30.95;5.68;;;;;;;;;;5013723;28;20049;-50
2024/03/30 09:18:45;;;;;;;28.73;4.53;;;;;;;;;;5013590;28;20046;-52
2024/03/30 09:21:12;;;;;;;31.17;5.18;;;;;;;;;;5013521;28;20064;-52
2024/03/30 09:23:38;;;;;;;34.05;6.15;;;;;;;;;;5013204;28;20057;-52
2024/03/30 09:26:05;;;;;;;28.40;5.50;;;;;;;;;;5013796;28;20046;-53
2024/03/30 09:28:32;;;;;;;40.28;5.22;;;;;;;;;;5013619;28;20429;-52
2024/03/30 09:30:59;;;;;;;31.55;4.85;;;;;;;;;;5012304;28;20145;-54
2024/03/30 09:33:25;;;;;;;33.40;5.10;;;;;;;;;;5013008;28;20057;-51
2024/03/30 09:35:54;;;;;;;33.75;6.18;;;;;;;;;;5013141;28;20042;-55
2024/03/30 09:38:20;;;;;;;29.03;5.53;;;;;;;;;;5013628;28;20089;-56
2024/03/30 09:40:55;;;;;;;38.70;7.28;;;;;;;;;;5013087;28;20096;-56
2024/03/30 09:43:22;;;;;;;30.80;5.22;;;;;;;;;;5012660;28;20057;-56
2024/03/30 09:45:52;;;;;;;35.47;6.78;;;;;;;;;;5013323;28;20391;-53
2024/03/30 09:48:19;;;;;;;33.95;5.45;;;;;;;;;;5013222;28;20056;-51
2024/03/30 09:50:48;;;;;;;29.13;5.10;;;;;;;;;;5013330;28;20046;-51
2024/03/30 09:53:16;;;;;;;31.77;5.75;;;;;;;;;;5012874;28;20129;-51
2024/03/30 09:55:44;;;;;;;27.38;5.05;;;;;;;;;;5012893;28;20045;-55
2024/03/30 09:58:12;;;;;;;29.20;5.35;;;;;;;;;;5012879;28;20046;-55
2024/03/30 10:00:40;;;;;;;31.60;6.22;;;;;;;;;;5012870;28;20085;-51
2024/03/30 10:03:07;;;;;;;39.58;5.35;;;;;;;;;;5012653;28;20050;-57
2024/03/30 10:05:38;;;;;;;35.80;5.78;;;;;;;;;;5013008;28;20050;-54
2024/03/30 10:08:05;;;;;;;;;;;;;;;;;;5013429;28;20045;-54
2024/03/30 10:10:32;;;;;;;29.92;4.10;;;;;;;;;;5012930;28;19963;-53
2024/03/30 10:13:01;;;;;;;38.38;4.53;;;;;;;;;;5012358;28;20060;-57
2024/03/30 10:15:35;;;;;;;35.97;6.40;;;;;;;;;;5012620;28;20133;-56
2024/03/30 10:18:01;;;;;;;36.65;4.97;;;;;;;;;;5012613;28;20054;-50
2024/03/30 10:20:30;;;;;;;29.10;4.43;;;;;;;;;;5012736;28;20066;-56
2024/03/30 10:22:56;;;;;;;28.02;4.70;;;;;;;;;;5012646;28;20776;-56
2024/03/30 10:25:24;;;;;;;24.33;4.35;;;;;;;;;;5012229;28;20050;-57
2024/03/30 10:27:49;;;;;;;30.10;4.20;;;;;;;;;;5013050;28;20398;-55
2024/03/30 10:30:17;;;;;;;23.92;4.60;;;;;;;;;;5012736;28;20061;-55
2024/03/30 10:32:44;;;;;;;29.17;4.97;;;;;;;;;;5012178;28;20053;-55
2024/03/30 10:35:14;;;;;;;27.95;4.32;;;;;;;;;;5012062;28;20129;-55
2024/03/30 10:37:42;;;;;;;28.70;4.72;;;;;;;;;;5012755;28;20084;-51
2024/03/30 10:40:10;;;;;;;25.75;3.97;;;;;;;;;;5012363;28;20498;-51
2024/03/30 10:42:37;;;;;;;28.40;4.43;;;;;;;;;;5011805;28;20085;-54
2024/03/30 10:45:04;;;;;;;23.15;4.78;;;;;;;;;;5012129;28;20050;-53
2024/03/30 10:47:30;;;;;;;28.85;4.95;;;;;;;;;;5004100;28;20069;-55
2024/03/30 10:49:58;;;;;;;33.25;4.47;;;;;;;;;;5012190;28;20053;-52
2024/03/30 10:52:25;;;;;;;25.17;4.75;;;;;;;;;;5011899;28;20049;-53
2024/03/30 10:54:54;;;;;;;30.63;5.35;;;;;;;;;;5011997;28;20417;-52
2024/03/30 10:57:21;;;;;;;35.43;5.20;;;;;;;;;;5011828;28;20054;-57
2024/03/30 10:59:50;;;;;;;28.73;4.90;;;;;;;;;;5012318;28;20706;-55
2024/03/30 11:02:17;;;;;;;30.02;4.30;;;;;;;;;;5012106;28;20049;-55
2024/03/30 11:04:44;;;;;;;23.70;4.30;;;;;;;;;;5011623;28;20045;-53
2024/03/30 11:07:12;;;;;;;27.85;4.68;;;;;;;;;;5011884;28;20056;-50
2024/03/30 11:09:41;;;;;;;26.55;4.55;;;;;;;;;;5011900;28;20137;-54
2024/03/30 11:12:10;;;;;;;23.53;4.30;;;;;;;;;;5012051;28;20072;-53
2024/03/30 11:14:38;;;;;;;24.38;3.88;;;;;;;;;;5011457;28;20049;-53
2024/03/30 11:17:13;;;;;;;28.10;4.78;;;;;;;;;;5011944;28;20053;-51
2024/03/30 11:19:46;;;;;;;28.15;5.55;;;;;;;;;;5011938;28;20050;-52
2024/03/30 11:22:20;;;;;;;27.05;4.65;;;;;;;;;;5011428;28;20057;-50
2024/03/30 11:24:57;;;;;;;26.67;5.20;;;;;;;;;;5011664;28;20049;-50
2024/03/30 11:27:31;;;;;;;23.85;5.00;;;;;;;;;;5011796;28;20050;-52
2024/03/30 11:30:05;;;;;;;30.65;5.97;;;;;;;;;;5011451;28;20050;-52
2024/03/30 11:32:35;;;;;;;29.67;5.10;;;;;;;;;;5011486;28;20104;-53
2024/03/30 11:35:16;;;;;;;25.75;4.80;;;;;;;;;;5011519;28;20050;-52
2024/03/30 11:37:45;;;;;;;27.17;4.55;;;;;;;;;;5011825;28;20413;-52
2024/03/30 11:40:20;;;;;;;31.65;6.40;;;;;;;;;;5011130;28;20057;-52
2024/03/30 11:42:56;;;;;;;30.17;4.50;;;;;;;;;;5011589;28;20494;-55
2024/03/30 11:45:27;;;;;;;30.73;4.40;;;;;;;;;;5011448;28;20106;-53
2024/03/30 11:47:54;;;;;;;27.80;5.05;;;;;;;;;;5011738;28;20524;-50
2024/03/30 11:50:21;;;;;;;27.77;5.47;;;;;;;;;;5011540;28;20050;-53
2024/03/30 11:52:48;;;;;;;32.92;4.25;;;;;;;;;;5011796;28;20054;-54
2024/03/30 11:55:24;;;;;;;28.70;4.03;;;;;;;;;;5015180;28;20042;-56
2024/03/30 11:57:55;;;;;;;26.50;4.78;;;;;;;;;;5015411;28;20132;-55
2024/03/30 12:00:25;;;;;;;27.67;5.10;;;;;;;;;;5015128;28;20050;-57
2024/03/30 12:02:56;;;;;;;25.58;4.43;;;;;;;;;;5014636;28;20092;-57
2024/03/30 12:05:29;;;;;;;22.60;4.45;;;;;;;;;;5015123;28;20049;-53
2024/03/30 12:07:56;;;;;;;25.75;4.88;;;;;;;;;;5015293;28;20140;-51
2024/03/30 12:10:23;;;;;;;25.08;4.65;;;;;;;;;;5015047;28;20474;-51
2024/03/30 12:12:58;;;;;;;28.42;5.28;;;;;;;;;;5014823;28;20050;-56
2024/03/30 12:15:27;;;;;;;33.15;4.20;;;;;;;;;;5015552;28;20046;-52
2024/03/30 12:17:53;;;;;;;21.83;4.22;;;;;;;;;;5015647;28;20069;-55
2024/03/30 12:20:20;;;;;;;33.60;6.63;;;;;;;;;;5015616;28;20414;-55
2024/03/30 12:22:46;;;;;;;30.65;5.53;;;;;;;;;;5015417;28;20516;-58
2024/03/30 12:25:14;;;;;;;27.23;6.47;;;;;;;;;;5014557;28;20046;-54
2024/03/30 12:27:41;;;;;;;25.10;4.40;;;;;;;;;;5014711;28;20054;-55
2024/03/30 12:30:11;;;;;;;29.73;4.57;;;;;;;;;;5015043;28;20046;-52
2024/03/30 12:32:37;;;;;;;27.92;5.15;;;;;;;;;;5014585;28;20053;-57
2024/03/30 12:35:04;;;;;;;31.85;5.03;;;;;;;;;;5014546;28;20050;-55
2024/03/30 12:37:31;;;;;;;28.95;4.65;;;;;;;;;;5015101;28;20065;-53
2024/03/30 12:39:58;;;;;;;29.77;4.72;;;;;;;;;;5014249;28;20108;-56
2024/03/30 12:42:25;;;;;;;32.28;4.72;;;;;;;;;;5014536;28;20505;-51
2024/03/30 12:44:53;;;;;;;28.38;5.30;;;;;;;;;;5014234;28;20056;-52
2024/03/30 12:47:20;;;;;;;34.20;6.22;;;;;;;;;;5014499;28;20489;-56
2024/03/30 12:49:47;;;;;;;36.90;5.40;;;;;;;;;;5014292;28;20053;-52
2024/03/30 12:52:14;;;;;;;32.03;5.97;;;;;;;;;;5014248;28;20398;-57
2024/03/30 12:54:41;;;;;;;35.97;5.88;;;;;;;;;;5013906;28;20050;-51
2024/03/30 12:57:08;;;;;;;37.30;5.50;;;;;;;;;;5014320;28;20050;-56
2024/03/30 12:59:35;;;;;;;36.65;4.30;;;;;;;;;;5014289;28;20053;-55
2024/03/30 13:02:03;;;;;;;34.55;6.75;;;;;;;;;;5014032;28;20046;-52
2024/03/30 13:04:32;;;;;;;33.40;6.82;;;;;;;;;;5013342;28;20081;-56
2024/03/30 13:06:58;;;;;;;31.70;6.13;;;;;;;;;;5014255;28;20666;-52
2024/03/30 13:09:25;;;;;;;36.95;5.55;;;;;;;;;;5014031;28;20287;-56
2024/03/30 13:11:51;;;;;;;32.03;6.13;;;;;;;;;;5013968;28;20072;-56
2024/03/30 13:14:18;;;;;;;37.10;5.90;;;;;;;;;;5013815;28;20486;-55
2024/03/30 13:16:44;;;;;;;28.55;5.07;;;;;;;;;;5014237;28;20049;-53
2024/03/30 13:19:12;;;;;;;29.70;5.22;;;;;;;;;;5013912;28;20521;-57
2024/03/30 13:21:40;;;;;;;35.97;5.70;;;;;;;;;;5014030;28;20049;-53
2024/03/30 13:24:07;;;;;;;32.75;6.55;;;;;;;;;;5013638;28;20081;-52
2024/03/30 13:26:33;;;;;;;39.03;5.65;;;;;;;;;;5013982;28;20053;-57
2024/03/30 13:29:00;;;;;;;37.05;7.13;;;;;;;;;;5014030;28;20053;-55
2024/03/30 13:31:26;;;;;;;30.58;6.20;;;;;;;;;;5013478;28;20050;-53
2024/03/30 13:33:54;;;;;;;30.25;4.55;;;;;;;;;;5013150;28;20050;-56
2024/03/30 13:36:20;;;;;;;34.33;4.85;;;;;;;;;;5013452;28;20046;-54
2024/03/30 13:38:48;;;;;;;37.40;5.55;;;;;;;;;;5013448;28;20061;-55
2024/03/30 13:41:14;;;;;;;35.30;5.95;;;;;;;;;;5013618;28;20524;-57
2024/03/30 13:43:40;;;;;;;31.13;6.57;;;;;;;;;;5013008;28;20054;-50
2024/03/30 13:46:06;;;;;;;38.35;5.93;;;;;;;;;;5013249;28;20489;-55
2024/03/30 13:48:35;;;;;;;44.97;6.22;;;;;;;;;;5013445;28;20062;-53
2024/03/30 13:51:01;;;;;;;40.15;7.20;;;;;;;;;;5013501;28;20061;-52
2024/03/30 13:53:28;;;;;;;37.25;5.88;;;;;;;;;;5013328;28;20077;-55
2024/03/30 13:55:55;;;;;;;40.00;7.30;;;;;;;;;;5013184;28;20053;-53
2024/03/30 13:58:25;;;;;;;40.28;8.10;;;;;;;;;;5013396;28;20129;-53
2024/03/30 14:00:51;;;;;;;43.60;6.32;;;;;;;;;;5013556;28;20058;-56
2024/03/30 14:03:18;;;;;;;45.10;7.68;;;;;;;;;;5013655;28;20493;-55
2024/03/30 14:05:44;;;;;;;40.35;6.53;;;;;;;;;;5013416;28;20042;-56
2024/03/30 14:08:11;;;;;;;38.55;7.55;;;;;;;;;;5013483;28;20053;-53
2024/03/30 14:10:37;;;;;;;42.15;7.45;;;;;;;;;;5013105;28;20060;-55
2024/03/30 14:13:05;;;;;;;38.30;6.25;;;;;;;;;;5012929;28;20049;-53
2024/03/30 14:15:31;;;;;;;39.05;7.28;;;;;;;;;;5011963;28;20049;-54
2024/03/30 14:17:58;;;;;;;35.53;6.68;;;;;;;;;;5012970;28;20061;-55
2024/03/30 14:20:24;;;;;;;43.13;7.30;;;;;;;;;;5012581;28;20049;-57
2024/03/30 14:22:51;;;;;;;31.52;6.72;;;;;;;;;;5012533;28;20060;-57
2024/03/30 14:25:16;;;;;;;36.88;6.78;;;;;;;;;;5012516;28;20050;-53
2024/03/30 14:27:43;;;;;;;33.10;5.82;;;;;;;;;;5012863;28;20049;-53
2024/03/30 14:30:11;;;;;;;36.67;6.20;;;;;;;;;;5012532;28;20046;-51
2024/03/30 14:32:38;;;;;;;36.83;6.85;;;;;;;;;;5004517;28;20050;-56